createdAt,value
2018-04-22T00:02:09.462Z,7.90
2018-04-22T00:04:37.083Z,7.90
2018-04-22T00:07:04.690Z,7.90
2018-04-22T00:09:33.075Z,7.90
2018-04-22T00:12:01.455Z,7.90
2018-04-22T00:14:29.828Z,7.90
2018-04-22T00:16:58.202Z,7.80
2018-04-22T00:19:26.562Z,7.90
2018-04-22T00:21:54.158Z,7.80
2018-04-22T00:24:21.759Z,7.80
2018-04-22T00:26:49.382Z,7.80
2018-04-22T00:29:16.982Z,7.80
2018-04-22T00:31:44.590Z,7.60
2018-04-22T00:34:12.951Z,7.50
2018-04-22T00:36:40.555Z,7.50
2018-04-22T00:39:08.156Z,7.40
2018-04-22T00:41:35.750Z,7.00
2018-04-22T00:44:04.246Z,6.60
2018-04-22T00:46:32.611Z,6.40
2018-04-22T00:49:00.973Z,6.50
2018-04-22T00:51:29.347Z,6.40
2018-04-22T00:54:08.767Z,6.40
2018-04-22T00:56:36.394Z,6.20
2018-04-22T00:59:03.986Z,6.20
2018-04-22T01:01:31.573Z,6.10
2018-04-22T01:03:59.225Z,6.20
2018-04-22T01:06:26.823Z,6.20
2018-04-22T01:08:54.426Z,6.10
2018-04-22T01:11:22.076Z,6.10
2018-04-22T01:13:49.684Z,6.30
2018-04-22T01:16:18.052Z,6.40
2018-04-22T01:18:46.426Z,6.50
2018-04-22T01:21:14.074Z,6.50
2018-04-22T01:23:41.678Z,6.50
2018-04-22T01:26:09.283Z,6.70
2018-04-22T01:28:36.874Z,6.60
2018-04-22T01:31:05.234Z,6.90
2018-04-22T01:33:32.840Z,6.90
2018-04-22T01:36:00.433Z,7.00
2018-04-22T01:38:28.022Z,6.90
2018-04-22T01:40:55.645Z,7.00
2018-04-22T01:43:23.244Z,7.10
2018-04-22T01:45:50.844Z,7.20
2018-04-22T01:48:18.444Z,7.10
2018-04-22T01:50:46.033Z,7.20
2018-04-22T01:53:14.406Z,7.20
2018-04-22T01:55:42.057Z,7.30
2018-04-22T01:58:09.661Z,7.30
2018-04-22T02:00:37.261Z,7.40
2018-04-22T02:03:04.900Z,7.40
2018-04-22T02:05:32.503Z,7.40
2018-04-22T02:08:00.103Z,7.40
2018-04-22T02:10:27.706Z,7.40
2018-04-22T02:12:55.300Z,7.50
2018-04-22T02:15:23.674Z,7.60
2018-04-22T02:17:51.318Z,7.60
2018-04-22T02:20:18.926Z,7.60
2018-04-22T02:22:46.539Z,7.70
2018-04-22T02:25:14.177Z,7.70
2018-04-22T02:27:41.787Z,7.70
2018-04-22T02:30:10.148Z,7.70
2018-04-22T02:32:37.772Z,7.70
2018-04-22T02:35:05.383Z,7.70
2018-04-22T02:37:33.738Z,7.80
2018-04-22T02:40:01.360Z,7.70
2018-04-22T02:42:28.972Z,7.80
2018-04-22T02:44:57.327Z,7.80
2018-04-22T02:47:24.947Z,7.80
2018-04-22T02:49:52.554Z,7.80
2018-04-22T02:52:20.160Z,7.80
2018-04-22T02:54:47.786Z,7.90
2018-04-22T02:57:16.149Z,7.80
2018-04-22T02:59:43.757Z,7.80
2018-04-22T03:02:11.457Z,7.80
2018-04-22T03:04:39.058Z,7.80
2018-04-22T03:07:07.420Z,7.80
2018-04-22T03:09:35.026Z,7.80
2018-04-22T03:12:02.634Z,7.80
2018-04-22T03:14:30.248Z,7.80
2018-04-22T03:16:57.850Z,7.90
2018-04-22T03:19:25.477Z,7.80
2018-04-22T03:21:53.074Z,7.90
2018-04-22T03:24:20.685Z,7.90
2018-04-22T03:26:48.279Z,8.00
2018-04-22T03:29:15.888Z,7.90
2018-04-22T03:31:43.502Z,7.80
2018-04-22T03:34:11.116Z,8.00
2018-04-22T03:36:38.722Z,7.90
2018-04-22T03:39:06.358Z,7.90
2018-04-22T03:41:33.950Z,7.90
2018-04-22T03:44:01.557Z,7.80
2018-04-22T03:46:29.181Z,7.80
2018-04-22T03:48:56.793Z,7.90
2018-04-22T03:51:24.399Z,7.80
2018-04-22T03:53:52.008Z,7.80
2018-04-22T03:56:19.594Z,7.80
2018-04-22T03:58:47.192Z,7.90
2018-04-22T04:01:15.617Z,7.90
2018-04-22T04:03:43.214Z,7.80
2018-04-22T04:06:10.815Z,7.80
2018-04-22T04:08:38.487Z,7.80
2018-04-22T04:11:06.079Z,7.80
2018-04-22T04:13:33.677Z,7.80
2018-04-22T04:16:02.084Z,7.90
2018-04-22T04:21:50.993Z,7.90
2018-04-22T04:24:40.081Z,7.90
2018-04-22T04:27:19.478Z,7.90
2018-04-22T04:29:47.073Z,7.90
2018-04-22T04:32:14.674Z,7.90
2018-04-22T04:34:42.274Z,8.00
2018-04-22T04:37:09.875Z,8.00
2018-04-22T04:39:37.476Z,8.00
2018-04-22T04:42:05.098Z,8.00
2018-04-22T04:44:33.461Z,8.10
2018-04-22T04:47:01.838Z,8.10
2018-04-22T04:49:29.457Z,8.10
2018-04-22T04:51:57.055Z,8.10
2018-04-22T04:54:24.714Z,8.10
2018-04-22T04:56:52.320Z,8.10
2018-04-22T04:59:19.917Z,8.10
2018-04-22T05:01:47.516Z,8.10
2018-04-22T05:04:15.126Z,8.10
2018-04-22T05:06:42.728Z,8.10
2018-04-22T05:09:10.322Z,8.20
2018-04-22T05:11:37.931Z,8.20
2018-04-22T05:14:05.529Z,8.20
2018-04-22T05:16:33.124Z,8.10
2018-04-22T05:19:00.744Z,8.10
2018-04-22T05:21:29.105Z,8.10
2018-04-22T05:23:56.706Z,8.20
2018-04-22T05:26:24.341Z,8.30
2018-04-22T05:28:52.723Z,8.40
2018-04-22T05:31:20.367Z,8.40
2018-04-22T05:33:47.989Z,8.40
2018-04-22T05:36:15.590Z,8.50
2018-04-22T05:38:43.202Z,8.50
2018-04-22T05:41:10.819Z,8.50
2018-04-22T05:43:38.411Z,8.70
2018-04-22T05:46:06.016Z,8.70
2018-04-22T05:48:33.669Z,8.70
2018-04-22T05:51:01.286Z,8.60
2018-04-22T05:53:28.907Z,8.60
2018-04-22T05:55:57.327Z,8.50
2018-04-22T05:58:24.946Z,8.50
2018-04-22T06:00:52.541Z,8.50
2018-04-22T06:03:20.160Z,8.70
2018-04-22T06:05:47.761Z,8.60
2018-04-22T06:08:15.359Z,8.70
2018-04-22T06:10:42.962Z,8.80
2018-04-22T06:13:10.566Z,8.70
2018-04-22T06:15:38.180Z,8.80
2018-04-22T06:18:05.834Z,8.80
2018-04-22T06:20:34.200Z,9.00
2018-04-22T06:23:01.804Z,9.00
2018-04-22T06:25:29.410Z,9.00
2018-04-22T06:27:57.011Z,9.20
2018-04-22T06:30:24.613Z,9.30
2018-04-22T06:32:52.256Z,9.40
2018-04-22T06:35:19.862Z,9.40
2018-04-22T06:37:47.462Z,9.50
2018-04-22T06:40:15.167Z,9.30
2018-04-22T06:42:42.748Z,9.50
2018-04-22T06:45:10.360Z,9.60
2018-04-22T06:47:37.969Z,9.50
2018-04-22T06:50:05.605Z,9.50
2018-04-22T06:52:33.214Z,9.60
2018-04-22T06:55:00.827Z,9.70
2018-04-22T06:57:28.434Z,9.70
2018-04-22T06:59:57.182Z,9.80
2018-04-22T07:02:24.820Z,9.80
2018-04-22T07:04:52.431Z,9.90
2018-04-22T07:07:20.801Z,10.00
2018-04-22T07:09:49.182Z,10.10
2018-04-22T07:12:17.546Z,10.20
2018-04-22T07:14:45.151Z,10.20
2018-04-22T07:17:12.778Z,10.30
2018-04-22T07:19:40.414Z,10.40
2018-04-22T07:22:08.019Z,10.40
2018-04-22T07:24:35.682Z,10.60
2018-04-22T07:27:03.294Z,10.60
2018-04-22T07:29:30.911Z,10.70
2018-04-22T07:31:58.552Z,10.80
2018-04-22T07:34:26.181Z,10.80
2018-04-22T07:39:22.800Z,10.80
2018-04-22T07:41:50.455Z,10.90
2018-04-22T07:44:18.066Z,10.90
2018-04-22T07:46:45.676Z,11.00
2018-04-22T07:49:14.496Z,11.20
2018-04-22T07:51:42.094Z,11.20
2018-04-22T07:54:10.475Z,11.20
2018-04-22T07:56:38.881Z,11.20
2018-04-22T07:59:06.485Z,11.10
2018-04-22T08:01:34.243Z,11.10
2018-04-22T08:06:32.790Z,11.40
2018-04-22T08:09:00.466Z,11.40
2018-04-22T08:11:28.844Z,11.30
2018-04-22T08:13:56.440Z,11.30
2018-04-22T08:16:24.099Z,11.30
2018-04-22T08:18:51.710Z,11.20
2018-04-22T08:21:19.382Z,11.30
2018-04-22T08:23:47.081Z,11.30
2018-04-22T08:26:14.714Z,11.20
2018-04-22T08:28:42.314Z,11.40
2018-04-22T08:31:09.921Z,11.50
2018-04-22T08:33:37.619Z,11.60
2018-04-22T08:36:05.299Z,11.60
2018-04-22T08:38:32.915Z,11.50
2018-04-22T08:41:00.530Z,11.70
2018-04-22T08:43:28.279Z,11.60
2018-04-22T08:45:55.906Z,11.60
2018-04-22T08:48:23.514Z,11.50
2018-04-22T08:50:51.259Z,11.30
2018-04-22T08:53:18.882Z,11.10
2018-04-22T08:55:46.515Z,11.10
2018-04-22T08:58:14.130Z,11.30
2018-04-22T09:00:41.768Z,11.30
2018-04-22T09:03:09.403Z,11.40
2018-04-22T09:05:37.123Z,11.30
2018-04-22T09:08:04.771Z,11.50
2018-04-22T09:10:32.406Z,11.50
2018-04-22T09:13:00.040Z,11.50
2018-04-22T09:15:28.414Z,11.30
2018-04-22T09:17:56.792Z,11.50
2018-04-22T09:20:24.414Z,11.40
2018-04-22T09:22:52.094Z,11.40
2018-04-22T09:25:19.715Z,11.50
2018-04-22T09:27:47.319Z,11.80
2018-04-22T09:30:14.962Z,11.80
2018-04-22T09:32:42.566Z,11.80
2018-04-22T09:35:10.928Z,11.90
2018-04-22T09:37:39.311Z,11.80
2018-04-22T09:40:06.950Z,11.80
2018-04-22T09:42:34.549Z,11.70
2018-04-22T09:45:02.167Z,11.80
2018-04-22T09:47:29.772Z,12.10
2018-04-22T09:49:57.750Z,12.10
2018-04-22T09:52:25.346Z,12.00
2018-04-22T09:54:52.947Z,12.10
2018-04-22T09:57:20.542Z,12.20
2018-04-22T09:59:48.177Z,12.20
2018-04-22T10:02:15.796Z,12.30
2018-04-22T10:04:47.326Z,12.20
2018-04-22T10:07:15.705Z,12.50
2018-04-22T10:09:43.301Z,12.40
2018-04-22T10:12:10.901Z,12.50
2018-04-22T10:14:38.518Z,12.60
2018-04-22T10:17:06.120Z,12.70
2018-04-22T10:19:33.760Z,12.70
2018-04-22T10:22:01.385Z,12.80
2018-04-22T10:24:28.992Z,12.80
2018-04-22T10:26:56.594Z,12.80
2018-04-22T10:29:24.221Z,12.80
2018-04-22T10:31:51.818Z,13.00
2018-04-22T10:34:19.466Z,13.10
2018-04-22T10:36:47.065Z,13.30
2018-04-22T10:39:14.665Z,14.50
2018-04-22T10:41:42.270Z,13.10
2018-04-22T10:46:38.880Z,13.80
2018-04-22T10:49:06.497Z,13.60
2018-04-22T10:51:34.162Z,13.50
2018-04-22T10:54:01.758Z,13.50
2018-04-22T10:56:29.355Z,13.30
2018-04-22T10:58:56.974Z,13.60
2018-04-22T11:01:24.578Z,13.50
2018-04-22T11:03:52.228Z,13.50
2018-04-22T11:06:19.842Z,13.50
2018-04-22T11:08:47.469Z,13.50
2018-04-22T11:11:15.070Z,13.50
2018-04-22T11:13:42.691Z,13.50
2018-04-22T11:16:10.294Z,13.50
2018-04-22T11:18:37.951Z,13.50
2018-04-22T11:21:06.341Z,13.60
2018-04-22T11:23:33.949Z,13.60
2018-04-22T11:26:01.551Z,13.60
2018-04-22T11:28:29.181Z,13.50
2018-04-22T11:30:57.556Z,13.30
2018-04-22T11:33:25.160Z,13.30
2018-04-22T11:35:52.784Z,13.30
2018-04-22T11:38:20.399Z,13.30
2018-04-22T11:40:48.012Z,13.30
2018-04-22T11:43:15.650Z,13.30
2018-04-22T11:45:43.253Z,13.20
2018-04-22T11:48:10.857Z,13.20
2018-04-22T11:50:38.502Z,13.30
2018-04-22T11:53:06.110Z,13.30
2018-04-22T11:55:33.749Z,13.20
2018-04-22T11:58:01.380Z,13.20
2018-04-22T12:00:28.978Z,13.20
2018-04-22T12:02:56.570Z,13.20
2018-04-22T12:05:24.959Z,13.30
2018-04-22T12:07:52.558Z,13.30
2018-04-22T12:10:20.161Z,13.50
2018-04-22T12:12:48.542Z,13.40
2018-04-22T12:15:16.973Z,13.40
2018-04-22T12:17:44.568Z,13.50
2018-04-22T12:20:12.246Z,13.40
2018-04-22T12:22:40.620Z,13.20
2018-04-22T12:25:08.984Z,13.30
2018-04-22T12:27:36.598Z,13.30
2018-04-22T12:30:04.253Z,13.40
2018-04-22T12:32:31.878Z,13.60
2018-04-22T12:35:00.251Z,15.20
2018-04-22T12:37:28.991Z,17.60
2018-04-22T12:39:56.585Z,19.00
2018-04-22T12:42:24.199Z,20.70
2018-04-22T12:44:51.795Z,21.90
2018-04-22T12:47:20.486Z,23.40
2018-04-22T12:49:48.105Z,23.50
2018-04-22T12:52:15.712Z,24.20
2018-04-22T12:54:43.314Z,25.10
2018-04-22T12:57:10.950Z,25.50
2018-04-22T12:59:39.547Z,26.60
2018-04-22T13:02:07.162Z,26.50
2018-04-22T13:04:34.806Z,25.30
2018-04-22T13:07:02.406Z,26.20
2018-04-22T13:09:30.776Z,26.40
2018-04-22T13:11:58.389Z,26.30
2018-04-22T13:14:26.031Z,26.50
2018-04-22T13:16:53.631Z,26.00
2018-04-22T13:19:21.243Z,26.20
2018-04-22T13:21:48.846Z,26.20
2018-04-22T13:24:16.437Z,25.00
2018-04-22T13:26:44.819Z,25.80
2018-04-22T13:29:13.186Z,26.10
2018-04-22T13:31:40.831Z,26.10
2018-04-22T13:34:08.587Z,25.70
2018-04-22T13:36:36.196Z,25.80
2018-04-22T13:39:05.458Z,25.20
2018-04-22T13:41:33.117Z,25.20
2018-04-22T13:44:00.719Z,24.90
2018-04-22T13:46:29.079Z,24.70
2018-04-22T13:48:56.691Z,24.70
2018-04-22T13:51:24.298Z,24.60
2018-04-22T13:53:51.898Z,24.60
2018-04-22T13:56:19.502Z,25.00
2018-04-22T13:58:47.154Z,24.60
2018-04-22T14:01:14.792Z,25.10
2018-04-22T14:03:42.408Z,25.20
2018-04-22T14:06:10.776Z,25.10
2018-04-22T14:08:38.379Z,24.90
2018-04-22T14:11:05.989Z,25.50
2018-04-22T14:13:33.654Z,25.90
2018-04-22T14:16:01.477Z,26.10
2018-04-22T14:18:37.495Z,26.50
2018-04-22T14:21:09.292Z,27.10
2018-04-22T14:23:51.238Z,27.10
2018-04-22T14:26:28.864Z,27.40
2018-04-22T14:34:39.075Z,25.80
2018-04-22T14:37:06.786Z,25.70
2018-04-22T14:39:34.428Z,25.10
2018-04-22T14:42:02.078Z,24.80
2018-04-22T14:44:41.354Z,25.00
2018-04-22T14:47:09.726Z,24.80
2018-04-22T14:49:37.355Z,24.80
2018-04-22T14:52:04.987Z,24.50
2018-04-22T14:54:32.601Z,23.60
2018-04-22T14:57:00.966Z,20.10
2018-04-22T14:59:28.838Z,20.10
2018-04-22T15:01:56.498Z,18.60
2018-04-22T15:04:24.118Z,18.00
2018-04-22T15:06:51.733Z,17.80
2018-04-22T15:09:20.114Z,19.40
2018-04-22T15:11:48.598Z,20.90
2018-04-22T15:14:16.263Z,20.80
2018-04-22T15:16:44.634Z,22.40
2018-04-22T15:19:12.998Z,22.20
2018-04-22T15:21:40.597Z,22.20
2018-04-22T15:24:08.227Z,21.50
2018-04-22T15:26:35.882Z,20.30
2018-04-22T15:29:03.502Z,20.40
2018-04-22T15:31:31.137Z,19.90
2018-04-22T15:33:58.762Z,19.20
2018-04-22T15:36:26.375Z,18.50
2018-04-22T15:38:54.147Z,18.00
2018-04-22T15:41:21.766Z,17.20
2018-04-22T15:43:49.902Z,16.50
2018-04-22T15:46:17.565Z,16.30
2018-04-22T15:48:45.182Z,15.70
2018-04-22T15:51:12.802Z,15.50
2018-04-22T15:53:40.466Z,15.50
2018-04-22T15:56:08.095Z,15.60
2018-04-22T15:58:35.701Z,15.50
2018-04-22T16:01:04.094Z,14.80
2018-04-22T16:03:31.703Z,14.80
2018-04-22T16:05:59.320Z,14.60
2018-04-22T16:08:27.762Z,14.20
2018-04-22T16:10:55.416Z,14.10
2018-04-22T16:13:23.035Z,13.90
2018-04-22T16:15:50.658Z,13.70
2018-04-22T16:18:18.299Z,13.30
2018-04-22T16:20:45.894Z,13.10
2018-04-22T16:23:14.280Z,12.90
2018-04-22T16:25:41.907Z,12.90
2018-04-22T16:28:09.515Z,12.80
2018-04-22T16:30:37.130Z,12.60
2018-04-22T16:33:04.756Z,12.50
2018-04-22T16:35:32.368Z,12.40
2018-04-22T16:38:00.025Z,12.40
2018-04-22T16:40:27.646Z,12.20
2018-04-22T16:42:55.259Z,12.00
2018-04-22T16:45:24.016Z,12.00
2018-04-22T16:47:51.686Z,12.00
2018-04-22T16:50:20.047Z,11.80
2018-04-22T16:52:47.737Z,11.90
2018-04-22T16:55:16.148Z,11.70
2018-04-22T16:57:43.786Z,11.60
2018-04-22T17:00:11.413Z,11.60
2018-04-22T17:02:39.039Z,11.70
2018-04-22T17:05:06.660Z,11.60
2018-04-22T17:07:35.051Z,11.50
2018-04-22T17:12:32.777Z,11.40
2018-04-22T17:15:00.425Z,11.40
2018-04-22T17:17:28.826Z,11.40
2018-04-22T17:19:56.458Z,11.50
2018-04-22T17:22:25.227Z,10.90
2018-04-22T17:24:53.064Z,10.90
2018-04-22T17:27:20.672Z,10.90
2018-04-22T17:29:48.296Z,10.90
2018-04-22T17:32:15.946Z,10.90
2018-04-22T17:34:44.383Z,10.80
2018-04-22T17:37:12.022Z,10.80
2018-04-22T17:39:39.658Z,10.80
2018-04-22T17:42:07.292Z,10.70
2018-04-22T17:44:34.929Z,10.70
2018-04-22T17:47:02.525Z,10.70
2018-04-22T17:49:30.919Z,10.60
2018-04-22T17:51:59.317Z,10.60
2018-04-22T17:54:26.921Z,10.50
2018-04-22T17:56:54.601Z,10.50
2018-04-22T17:59:22.988Z,10.40
2018-04-22T18:01:51.351Z,10.40
2018-04-22T18:04:18.971Z,10.40
2018-04-22T18:06:46.611Z,10.40
2018-04-22T18:09:14.224Z,10.40
2018-04-22T18:11:41.821Z,10.40
2018-04-22T18:14:09.487Z,10.40
2018-04-22T18:16:37.121Z,10.30
2018-04-22T18:19:04.750Z,10.30
2018-04-22T18:21:32.382Z,10.20
2018-04-22T18:23:59.986Z,10.10
2018-04-22T18:26:27.950Z,10.00
2018-04-22T18:28:56.292Z,9.90
2018-04-22T18:31:23.897Z,9.80
2018-04-22T18:33:51.484Z,9.70
2018-04-22T18:36:19.113Z,9.60
2018-04-22T18:38:46.714Z,9.50
2018-04-22T18:41:14.314Z,9.40
2018-04-22T18:43:41.938Z,9.20
2018-04-22T18:46:09.537Z,9.10
2018-04-22T18:48:37.131Z,8.90
2018-04-22T18:51:05.533Z,9.00
2018-04-22T18:53:33.134Z,9.00
2018-04-22T18:56:00.767Z,9.00
2018-04-22T18:58:28.391Z,9.10
2018-04-22T19:00:56.107Z,9.00
2018-04-22T19:03:23.698Z,9.10
2018-04-22T19:05:51.309Z,9.10
2018-04-22T19:08:19.694Z,9.10
2018-04-22T19:10:47.342Z,9.10
2018-04-22T19:13:14.967Z,9.10
2018-04-22T19:15:42.679Z,9.00
2018-04-22T19:18:10.313Z,9.00
2018-04-22T19:20:38.678Z,8.90
2018-04-22T19:23:06.326Z,8.90
2018-04-22T19:25:33.924Z,8.90
2018-04-22T19:28:01.586Z,8.80
2018-04-22T19:30:29.184Z,8.90
2018-04-22T19:32:56.903Z,8.90
2018-04-22T19:35:24.541Z,8.90
2018-04-22T19:37:52.930Z,8.90
2018-04-22T19:40:21.314Z,8.90
2018-04-22T19:42:49.001Z,8.90
2018-04-22T19:45:16.679Z,9.00
2018-04-22T19:47:44.278Z,9.00
2018-04-22T19:50:11.954Z,9.00
2018-04-22T19:52:40.343Z,9.00
2018-04-22T19:55:07.933Z,9.00
2018-04-22T19:57:35.595Z,9.00
2018-04-22T20:00:03.226Z,9.10
2018-04-22T20:02:30.876Z,9.10
2018-04-22T20:04:58.538Z,9.10
2018-04-22T20:07:26.913Z,9.20
2018-04-22T20:09:55.301Z,9.20
2018-04-22T20:12:23.703Z,9.10
2018-04-22T20:14:51.361Z,9.10
2018-04-22T20:17:19.024Z,9.10
2018-04-22T20:19:46.724Z,9.10
2018-04-22T20:22:14.321Z,9.10
2018-04-22T20:24:41.935Z,9.10
2018-04-22T20:27:09.609Z,9.20
2018-04-22T20:29:37.254Z,9.20
2018-04-22T20:32:04.848Z,9.20
2018-04-22T20:34:33.227Z,9.30
2018-04-22T20:37:01.614Z,9.30
2018-04-22T20:39:29.998Z,9.30
2018-04-22T20:41:58.391Z,9.30
2018-04-22T20:44:26.077Z,9.30
2018-04-22T20:46:53.725Z,9.30
2018-04-22T20:49:21.371Z,9.40
2018-04-22T20:51:49.025Z,9.40
2018-04-22T20:54:16.646Z,9.40
2018-04-22T20:56:44.253Z,9.50
2018-04-22T20:59:11.847Z,9.50
2018-04-22T21:01:39.500Z,9.40
2018-04-22T21:04:07.150Z,9.40
2018-04-22T21:06:34.813Z,9.40
2018-04-22T21:09:02.595Z,9.30
2018-04-22T21:11:30.320Z,9.20
2018-04-22T21:13:57.997Z,9.20
2018-04-22T21:16:25.646Z,9.10
2018-04-22T21:18:53.278Z,8.90
2018-04-22T21:21:20.876Z,8.90
2018-04-22T21:23:48.462Z,8.90
2018-04-22T21:26:16.105Z,8.80
2018-04-22T21:28:43.734Z,8.70
2018-04-22T21:31:12.152Z,8.50
2018-04-22T21:33:39.842Z,8.50
2018-04-22T21:36:07.438Z,8.30
2018-04-22T21:38:35.801Z,8.10
2018-04-22T21:41:04.254Z,8.00
2018-04-22T21:43:31.858Z,8.00
2018-04-22T21:46:00.218Z,7.90
2018-04-22T21:48:28.587Z,7.80
2018-04-22T21:50:56.182Z,7.80
2018-04-22T21:53:23.775Z,7.70
2018-04-22T21:55:51.430Z,7.70
2018-04-22T21:58:19.022Z,7.60
2018-04-22T22:00:46.614Z,7.60
2018-04-22T22:03:14.230Z,7.50
2018-04-22T22:05:41.836Z,7.50
2018-04-22T22:08:09.433Z,7.50
2018-04-22T22:10:37.039Z,7.50
2018-04-22T22:13:04.625Z,7.50
2018-04-22T22:15:32.221Z,7.60
2018-04-22T22:17:59.823Z,7.60
2018-04-22T22:20:27.410Z,7.60
2018-04-22T22:22:55.002Z,7.60
2018-04-22T22:25:23.414Z,7.40
2018-04-22T22:27:51.040Z,7.40
2018-04-22T22:30:18.666Z,7.30
2018-04-22T22:32:46.272Z,7.20
2018-04-22T22:35:13.857Z,7.20
2018-04-22T22:37:41.477Z,7.20
2018-04-22T22:40:09.868Z,7.10
2018-04-22T22:42:37.459Z,7.00
2018-04-22T22:45:05.048Z,7.00
2018-04-22T22:47:32.718Z,7.00
2018-04-22T22:50:00.327Z,7.10
2018-04-22T22:52:27.955Z,7.00
2018-04-22T22:54:55.574Z,7.00
2018-04-22T22:57:23.937Z,7.00
2018-04-22T22:59:51.526Z,7.00
2018-04-22T23:02:19.135Z,7.00
2018-04-22T23:04:46.723Z,7.00
2018-04-22T23:07:14.346Z,7.00
2018-04-22T23:09:42.026Z,7.10
2018-04-22T23:12:09.711Z,7.10
2018-04-22T23:14:37.282Z,7.20
2018-04-22T23:17:04.933Z,7.20
2018-04-22T23:19:32.542Z,7.20
2018-04-22T23:22:00.135Z,7.30
2018-04-22T23:24:28.513Z,7.30
2018-04-22T23:26:56.123Z,7.30
2018-04-22T23:29:23.761Z,7.30
2018-04-22T23:31:51.423Z,7.40
2018-04-22T23:34:19.073Z,7.30
2018-04-22T23:36:46.678Z,7.30
2018-04-22T23:39:14.301Z,7.10
2018-04-22T23:41:41.956Z,7.10
2018-04-22T23:44:09.585Z,7.10
2018-04-22T23:46:37.194Z,7.00
2018-04-22T23:49:04.786Z,7.00
2018-04-22T23:51:32.375Z,6.80
2018-04-22T23:54:00.047Z,6.80
2018-04-22T23:56:28.406Z,6.90
2018-04-22T23:58:56.128Z,6.90
